Waynesburg, Indiana
Current Conditions -  °F | °C
As of 8:50 PM on Friday 31 Oct 2014 (Local Time) from KBAK Reporting Station
Clear Clear  
Wind Chill: 26°   Ceiling: Unl
Heat Index: 37°   Visibility: 10mi
Dew Point: 36°   Wind: 25mph
Humidity: 93%   Direction: 340°NNW
Pressure: 30.07"   Gusts: NA
Location:  39.2586°N, 85.6981°W
Report Text: KBAK 010050Z 34022KT G35 10SM MM 03/02 A3007
Loading
Personal Weather Stations






























Interactive Weather Map
Tropical Storm Tracking
New forecast layout! Learn more

10-Day Weather Forecast

Advertisements
Track Severe Weather on mobile